Time;durP1;ratioP1;P1;durP2;ratioP2;P2;SDS_P1;SDS_P2;PMS_P1;PMS_P2;Temp;Humidity;BMP_temperature;BMP_pressure;BME280_temperature;BME280_humidity;BME280_pressure;Samples;Min_cycle;Max_cycle;Signal;HPM_P1;HPM_P2
2022/09/06 00:01:40;;;;;;;0.60;0.50;;;14.80;70.40;;;;;;5005843;28;20026;-86
2022/09/06 00:04:05;;;;;;;0.45;0.45;;;14.70;71.30;;;;;;5005241;28;20042;-84
2022/09/06 00:06:31;;;;;;;0.77;0.60;;;14.60;72.20;;;;;;5006804;28;20029;-88
2022/09/06 00:08:56;;;;;;;1.75;0.80;;;14.70;71.40;;;;;;5005945;28;20431;-87
2022/09/06 00:11:22;;;;;;;0.70;0.57;;;14.70;71.00;;;;;;5007708;28;20022;-85
2022/09/06 00:13:47;;;;;;;0.52;0.50;;;14.70;71.30;;;;;;5004483;28;20022;-87
2022/09/06 00:16:19;;;;;;;0.73;0.50;;;14.60;72.00;;;;;;5003998;28;20416;-87
2022/09/06 00:18:44;;;;;;;0.70;0.70;;;14.70;71.20;;;;;;5005032;28;20117;-86
2022/09/06 00:21:20;;;;;;;1.30;0.65;;;14.70;70.90;;;;;;5005806;28;20564;-87
2022/09/06 00:23:45;;;;;;;0.52;0.52;;;14.60;71.40;;;;;;5006793;28;20113;-87
2022/09/06 00:26:11;;;;;;;0.50;0.50;;;14.70;71.10;;;;;;5003944;28;20106;-85
2022/09/06 00:28:37;;;;;;;0.47;0.47;;;14.70;70.90;;;;;;5004366;28;20120;-89
2022/09/06 00:31:11;;;;;;;0.60;0.60;;;14.60;72.20;;;;;;5005537;28;20048;-82
2022/09/06 00:33:37;;;;;;;0.38;0.38;;;14.50;71.70;;;;;;5007906;28;20184;-84
2022/09/06 00:36:03;;;;;;;1.02;0.50;;;14.50;72.40;;;;;;5004358;28;20494;-83
2022/09/06 00:38:28;;;;;;;0.43;0.40;;;14.60;72.20;;;;;;5004111;28;20089;-84
2022/09/06 00:40:54;;;;;;;2.45;1.10;;;14.50;71.50;;;;;;5006805;28;20452;-84
2022/09/06 00:43:19;;;;;;;1.67;0.40;;;14.50;71.70;;;;;;5000036;28;20037;-83
2022/09/06 00:45:45;;;;;;;0.77;0.63;;;14.40;72.40;;;;;;5006947;28;20452;-83
2022/09/06 00:48:11;;;;;;;0.60;0.40;;;14.50;72.30;;;;;;5007551;28;20054;-83
2022/09/06 00:50:36;;;;;;;9.68;0.80;;;14.60;72.20;;;;;;5006054;28;20540;-83
2022/09/06 00:53:02;;;;;;;0.60;0.43;;;14.70;71.10;;;;;;5008226;28;20026;-82
2022/09/06 00:55:27;;;;;;;1.35;0.50;;;14.60;71.20;;;;;;5003622;28;20534;-83
2022/09/06 00:57:55;;;;;;;0.50;0.50;;;14.50;71.50;;;;;;5008992;28;20377;-83
2022/09/06 01:00:20;;;;;;;2.00;0.60;;;14.40;72.60;;;;;;5000657;28;20182;-84
2022/09/06 01:02:47;;;;;;;0.57;0.57;;;14.50;72.30;;;;;;5005151;28;20076;-81
2022/09/06 01:05:13;;;;;;;0.73;0.50;;;14.50;71.10;;;;;;5006474;28;20073;-84
2022/09/06 01:07:50;;;;;;;0.30;0.30;;;14.50;72.10;;;;;;4995695;28;20069;-81
2022/09/06 01:10:29;;;;;;;0.68;0.65;;;14.30;72.90;;;;;;5001146;28;20488;-84
2022/09/06 01:13:27;;;;;;;1.13;0.60;;;14.30;72.50;;;;;;4999878;28;20045;-81
2022/09/06 01:16:24;;;;;;;0.50;0.50;;;14.30;72.90;;;;;;4994793;28;20106;-83
2022/09/06 01:18:49;;;;;;;0.22;0.22;;;14.20;73.00;;;;;;5003846;28;20038;-82
2022/09/06 01:21:42;;;;;;;0.60;0.52;;;14.20;73.20;;;;;;5002068;28;20393;-82
2022/09/06 01:24:30;;;;;;;0.40;0.40;;;14.10;73.80;;;;;;5004662;28;20389;-84
2022/09/06 01:27:31;;;;;;;1.65;0.50;;;14.10;74.30;;;;;;5007479;28;20025;-83
2022/09/06 01:30:06;;;;;;;1.02;0.80;;;14.10;73.40;;;;;;5007451;28;20057;-82
2022/09/06 01:32:58;;;;;;;0.73;0.47;;;14.10;74.10;;;;;;5002965;28;20036;-83
2022/09/06 01:35:46;;;;;;;0.32;0.30;;;14.10;74.20;;;;;;5004608;28;20057;-82
2022/09/06 01:38:13;;;;;;;0.43;0.35;;;14.20;74.40;;;;;;5004353;28;20442;-83
2022/09/06 01:40:38;;;;;;;0.70;0.47;;;14.20;73.50;;;;;;5004631;28;20044;-84
2022/09/06 01:43:07;;;;;;;0.45;0.43;;;14.20;74.20;;;;;;5004735;28;20030;-83
2022/09/06 01:46:06;;;;;;;1.05;0.68;;;14.20;73.80;;;;;;5005906;28;20032;-83
2022/09/06 01:48:43;;;;;;;0.60;0.50;;;14.20;73.50;;;;;;4992776;28;20018;-83
2022/09/06 01:51:36;;;;;;;0.60;0.50;;;14.00;74.40;;;;;;5001110;28;20035;-83
2022/09/06 01:54:32;;;;;;;0.60;0.57;;;14.10;74.50;;;;;;5007583;28;20181;-83
2022/09/06 01:57:27;;;;;;;1.25;0.60;;;14.10;75.40;;;;;;4995659;28;20073;-84
2022/09/06 02:00:13;;;;;;;0.40;0.40;;;14.10;75.70;;;;;;4996962;28;20042;-83
2022/09/06 02:02:57;;;;;;;0.75;0.70;;;14.00;75.80;;;;;;5004592;28;20426;-84
2022/09/06 02:05:45;;;;;;;0.85;0.63;;;14.00;75.70;;;;;;5001194;28;20186;-84
2022/09/06 02:08:35;;;;;;;0.88;0.88;;;14.00;76.50;;;;;;5006380;28;20029;-84
2022/09/06 02:11:03;;;;;;;0.43;0.43;;;14.20;75.30;;;;;;4995438;28;20018;-84
2022/09/06 02:13:45;;;;;;;0.73;0.60;;;14.20;75.40;;;;;;5004626;28;20030;-84
2022/09/06 02:16:14;;;;;;;2.20;0.68;;;14.20;75.30;;;;;;5006226;28;20066;-84
2022/09/06 02:18:51;;;;;;;1.63;0.50;;;14.30;75.30;;;;;;5006424;28;20041;-84
2022/09/06 02:21:22;;;;;;;0.50;0.50;;;14.20;75.60;;;;;;5006424;28;20169;-82
2022/09/06 02:23:50;;;;;;;0.50;0.50;;;14.20;75.50;;;;;;5002402;28;20034;-82
2022/09/06 02:26:20;;;;;;;4.47;0.50;;;14.10;76.60;;;;;;5001423;28;20061;-83
2022/09/06 02:28:46;;;;;;;1.70;0.60;;;14.10;76.60;;;;;;5005253;28;20034;-84
2022/09/06 02:31:16;;;;;;;0.57;0.50;;;14.10;76.90;;;;;;5003771;28;20046;-84
2022/09/06 02:33:44;;;;;;;0.77;0.55;;;14.20;77.20;;;;;;5002049;28;21943;-84
2022/09/06 02:36:10;;;;;;;0.70;0.70;;;14.20;77.60;;;;;;5003421;28;20026;-84
2022/09/06 02:38:38;;;;;;;1.15;0.50;;;14.10;77.10;;;;;;5004781;28;20029;-83
2022/09/06 02:41:05;;;;;;;1.65;0.40;;;14.00;78.10;;;;;;5006975;28;20029;-84
2022/09/06 02:43:30;;;;;;;1.30;0.70;;;13.90;78.90;;;;;;4998532;28;20164;-85
2022/09/06 02:45:56;;;;;;;0.63;0.50;;;14.00;80.60;;;;;;4989440;28;20062;-85
2022/09/06 02:48:21;;;;;;;0.93;0.50;;;14.10;79.10;;;;;;4998001;28;20033;-85
2022/09/06 02:50:46;;;;;;;1.20;0.90;;;14.00;79.20;;;;;;5005486;28;20030;-83
2022/09/06 02:53:14;;;;;;;0.70;0.50;;;14.10;80.10;;;;;;5000706;28;20037;-83
2022/09/06 02:55:39;;;;;;;0.68;0.60;;;14.10;79.50;;;;;;5007074;28;20030;-84
2022/09/06 02:58:08;;;;;;;0.50;0.43;;;14.10;80.40;;;;;;5005848;28;20494;-83
2022/09/06 03:00:33;;;;;;;1.05;0.60;;;14.10;79.90;;;;;;4993865;28;20034;-84
2022/09/06 03:02:59;;;;;;;0.57;0.57;;;14.20;79.70;;;;;;5000085;28;20112;-84
2022/09/06 03:05:26;;;;;;;0.63;0.50;;;14.10;80.20;;;;;;5005473;28;20410;-83
2022/09/06 03:07:53;;;;;;;3.70;0.63;;;14.10;80.60;;;;;;5000023;28;20021;-82
2022/09/06 03:10:19;;;;;;;1.35;0.63;;;14.00;81.20;;;;;;5005713;28;20236;-81
2022/09/06 03:12:48;;;;;;;1.00;0.63;;;14.00;82.20;;;;;;5000999;28;20062;-83
2022/09/06 03:15:15;;;;;;;0.68;0.50;;;14.00;81.10;;;;;;5004118;28;20084;-85
2022/09/06 03:17:41;;;;;;;0.57;0.57;;;13.90;81.70;;;;;;5004846;28;20642;-80
2022/09/06 03:20:08;;;;;;;0.75;0.75;;;13.90;82.40;;;;;;5005833;28;20029;-81
2022/09/06 03:22:34;;;;;;;0.65;0.45;;;14.10;82.50;;;;;;5006570;28;20042;-80
2022/09/06 03:25:00;;;;;;;0.40;0.40;;;13.90;83.20;;;;;;5007313;28;20022;-81
2022/09/06 03:27:25;;;;;;;0.55;0.55;;;14.00;83.50;;;;;;5002597;28;20053;-85
2022/09/06 03:29:50;;;;;;;4.97;0.70;;;14.20;83.10;;;;;;5008163;28;20049;-87
2022/09/06 03:32:16;;;;;;;3.80;0.40;;;14.20;82.50;;;;;;4984925;28;20077;-88
2022/09/06 03:34:41;;;;;;;1.80;0.50;;;13.90;83.70;;;;;;5005182;28;20654;-86
2022/09/06 03:37:07;;;;;;;0.95;0.60;;;13.70;86.90;;;;;;5005675;28;20021;-86
2022/09/06 03:39:32;;;;;;;1.00;0.77;;;13.70;85.30;;;;;;5004463;28;20030;-81
2022/09/06 03:41:58;;;;;;;2.40;1.33;;;13.70;84.80;;;;;;5004607;28;20030;-80
2022/09/06 03:44:24;;;;;;;0.90;0.80;;;13.80;84.60;;;;;;5007342;28;20030;-81
2022/09/06 03:46:50;;;;;;;0.85;0.50;;;13.90;84.20;;;;;;4995894;28;20053;-81
2022/09/06 03:49:16;;;;;;;2.15;1.15;;;13.90;84.70;;;;;;5003159;28;20087;-82
2022/09/06 03:51:41;;;;;;;1.00;0.50;;;13.80;86.00;;;;;;5002462;28;20034;-81
2022/09/06 03:54:07;;;;;;;0.45;0.40;;;13.80;85.80;;;;;;4998915;28;20022;-82
2022/09/06 03:56:32;;;;;;;0.80;0.50;;;14.00;85.50;;;;;;4990915;28;20578;-82
2022/09/06 03:58:58;;;;;;;1.48;0.70;;;14.10;84.70;;;;;;5008508;28;20018;-82
2022/09/06 04:01:24;;;;;;;2.25;0.60;;;13.90;86.00;;;;;;5003779;28;20551;-83
2022/09/06 04:03:49;;;;;;;1.65;0.57;;;13.90;85.80;;;;;;5007545;28;20036;-82
2022/09/06 04:06:15;;;;;;;0.45;0.45;;;13.90;85.50;;;;;;5008588;28;20025;-82
2022/09/06 04:08:40;;;;;;;1.10;0.60;;;14.00;85.90;;;;;;5007876;28;20072;-83
2022/09/06 04:11:06;;;;;;;0.70;0.70;;;13.80;87.00;;;;;;5007370;28;20393;-80
2022/09/06 04:13:32;;;;;;;0.82;0.60;;;13.80;87.40;;;;;;5007417;28;20021;-82
2022/09/06 04:15:58;;;;;;;1.65;0.40;;;13.80;86.90;;;;;;5002682;28;20041;-81
2022/09/06 04:18:24;;;;;;;0.75;0.65;;;14.00;86.10;;;;;;5008013;28;20244;-83
2022/09/06 04:20:51;;;;;;;0.68;0.68;;;13.90;86.80;;;;;;5006477;28;20023;-83
2022/09/06 04:23:18;;;;;;;0.85;0.70;;;13.90;87.00;;;;;;4998736;28;20034;-83
2022/09/06 04:25:52;;;;;;;1.17;0.77;;;13.90;86.20;;;;;;5001056;28;20026;-84
2022/09/06 04:28:21;;;;;;;0.47;0.47;;;13.80;86.70;;;;;;5008706;28;20445;-83
2022/09/06 04:30:58;;;;;;;0.60;0.57;;;13.80;87.30;;;;;;5007368;28;20058;-83
2022/09/06 04:33:24;;;;;;;0.88;0.60;;;13.80;88.10;;;;;;5003833;28;20030;-83
2022/09/06 04:35:51;;;;;;;1.02;0.60;;;13.70;88.10;;;;;;5004485;28;20242;-83
2022/09/06 04:38:17;;;;;;;1.27;0.70;;;13.80;88.30;;;;;;5008259;28;20057;-82
2022/09/06 04:40:42;;;;;;;0.75;0.52;;;13.80;88.30;;;;;;5001679;28;20022;-81
2022/09/06 04:43:08;;;;;;;0.73;0.63;;;13.70;89.20;;;;;;5007023;28;20059;-84
2022/09/06 04:45:33;;;;;;;1.75;0.85;;;13.70;88.70;;;;;;4997986;28;20031;-83
2022/09/06 04:47:59;;;;;;;1.30;0.77;;;13.70;88.20;;;;;;5009083;28;20033;-83
2022/09/06 04:50:25;;;;;;;1.00;0.68;;;13.80;88.50;;;;;;5004375;28;20053;-83
2022/09/06 04:52:50;;;;;;;0.65;0.60;;;14.00;90.00;;;;;;4986826;28;20484;-83
2022/09/06 04:55:16;;;;;;;0.75;0.52;;;13.90;88.30;;;;;;5007007;28;20120;-82
2022/09/06 04:57:41;;;;;;;0.90;0.85;;;13.90;87.60;;;;;;5002842;28;20643;-82
2022/09/06 05:00:08;;;;;;;3.83;0.98;;;13.80;89.10;;;;;;5004967;28;20069;-82
2022/09/06 05:02:34;;;;;;;7.18;0.80;;;13.70;90.10;;;;;;5005324;28;20030;-83
2022/09/06 05:04:59;;;;;;;0.70;0.70;;;13.80;88.60;;;;;;5007430;28;20025;-82
2022/09/06 05:07:25;;;;;;;0.52;0.52;;;13.90;88.20;;;;;;4998341;28;20026;-81
2022/09/06 05:09:50;;;;;;;1.05;0.68;;;13.90;89.20;;;;;;5003968;28;20060;-80
2022/09/06 05:12:16;;;;;;;0.68;0.68;;;14.00;88.10;;;;;;5001913;28;20030;-82
2022/09/06 05:14:41;;;;;;;0.55;0.50;;;14.00;88.10;;;;;;5000716;28;20029;-80
2022/09/06 05:17:07;;;;;;;0.60;0.60;;;13.90;88.80;;;;;;5003131;28;20574;-82
2022/09/06 05:19:32;;;;;;;0.70;0.70;;;14.00;87.90;;;;;;4998696;28;20049;-82
2022/09/06 05:21:58;;;;;;;0.60;0.60;;;14.00;87.70;;;;;;4992180;28;20026;-80
2022/09/06 05:24:23;;;;;;;0.73;0.73;;;14.20;86.90;;;;;;5005851;28;20032;-81
2022/09/06 05:26:48;;;;;;;0.63;0.63;;;14.30;85.20;;;;;;5002235;28;20705;-82
2022/09/06 05:29:14;;;;;;;0.73;0.65;;;14.20;86.00;;;;;;5001037;28;20022;-80
2022/09/06 05:31:39;;;;;;;0.70;0.70;;;14.20;86.20;;;;;;5003182;28;20065;-82
2022/09/06 05:34:05;;;;;;;1.40;0.60;;;14.30;86.30;;;;;;5005051;28;20551;-81
2022/09/06 05:36:31;;;;;;;0.45;0.45;;;14.30;86.00;;;;;;5007408;28;21609;-82
2022/09/06 05:38:57;;;;;;;0.70;0.70;;;14.50;85.30;;;;;;5006901;28;20042;-79
2022/09/06 05:41:23;;;;;;;1.42;0.85;;;14.60;85.70;;;;;;4994939;28;20087;-82
2022/09/06 05:43:48;;;;;;;0.63;0.60;;;14.60;85.80;;;;;;4999246;28;20029;-82
2022/09/06 05:46:15;;;;;;;0.60;0.55;;;14.50;86.60;;;;;;4995516;28;20381;-82
2022/09/06 05:48:41;;;;;;;0.93;0.68;;;14.50;85.90;;;;;;5000169;28;20022;-83
2022/09/06 05:51:11;;;;;;;0.73;0.57;;;14.70;85.10;;;;;;4998213;28;20030;-81
2022/09/06 05:53:47;;;;;;;0.57;0.57;;;15.00;86.70;;;;;;4999942;28;20075;-82
2022/09/06 05:56:13;;;;;;;1.33;0.60;;;15.10;83.40;;;;;;5000469;28;20037;-79
2022/09/06 05:58:39;;;;;;;0.93;0.80;;;15.00;83.10;;;;;;5002972;28;20536;-81
2022/09/06 06:01:06;;;;;;;2.75;0.77;;;15.00;82.50;;;;;;5004861;28;20109;-84
2022/09/06 06:03:32;;;;;;;0.70;0.55;;;14.90;82.90;;;;;;5001802;28;20105;-82
2022/09/06 06:05:57;;;;;;;3.67;0.60;;;15.00;83.80;;;;;;5005993;28;20104;-85
2022/09/06 06:08:23;;;;;;;0.73;0.43;;;15.10;82.90;;;;;;5005844;28;20043;-84
2022/09/06 06:10:48;;;;;;;0.50;0.50;;;15.20;82.30;;;;;;5005936;28;20044;-83
2022/09/06 06:13:14;;;;;;;0.40;0.40;;;15.10;82.90;;;;;;5001891;28;20022;-83
2022/09/06 06:15:39;;;;;;;0.80;0.65;;;15.10;83.50;;;;;;5003229;28;20484;-80
2022/09/06 06:18:05;;;;;;;1.85;0.88;;;15.00;83.80;;;;;;5003445;28;20100;-80
2022/09/06 06:20:31;;;;;;;0.90;0.60;;;15.20;84.40;;;;;;5003871;28;20046;-82
2022/09/06 06:22:56;;;;;;;1.05;0.50;;;15.20;82.80;;;;;;5004603;28;20048;-82
2022/09/06 06:25:25;;;;;;;0.63;0.63;;;15.20;84.50;;;;;;5003523;28;20235;-82
2022/09/06 06:27:51;;;;;;;0.70;0.52;;;15.20;84.00;;;;;;5004883;28;20396;-81
2022/09/06 06:30:16;;;;;;;0.98;0.73;;;15.20;82.90;;;;;;4997765;28;20069;-84
2022/09/06 06:32:45;;;;;;;1.50;0.73;;;15.30;82.40;;;;;;5001705;28;20156;-79
2022/09/06 06:35:10;;;;;;;0.60;0.60;;;15.50;82.80;;;;;;4991830;28;20025;-79
2022/09/06 06:37:36;;;;;;;3.20;1.35;;;15.60;81.90;;;;;;5005467;28;20411;-79
2022/09/06 06:40:04;;;;;;;0.50;0.50;;;15.60;82.40;;;;;;5006768;28;20034;-80
2022/09/06 06:42:29;;;;;;;1.38;0.88;;;15.60;80.40;;;;;;4992770;28;20041;-79
2022/09/06 06:44:54;;;;;;;1.63;0.52;;;15.80;82.10;;;;;;5006583;28;20018;-80
2022/09/06 06:47:20;;;;;;;0.73;0.70;;;15.90;79.30;;;;;;5004481;28;20026;-80
2022/09/06 06:49:47;;;;;;;0.88;0.57;;;15.90;80.40;;;;;;5005200;28;20037;-79
2022/09/06 06:52:12;;;;;;;0.68;0.68;;;15.90;81.80;;;;;;5001518;28;20030;-80
2022/09/06 06:54:38;;;;;;;0.93;0.73;;;16.10;79.00;;;;;;5007544;28;20033;-79
2022/09/06 06:57:08;;;;;;;0.75;0.70;;;16.20;78.80;;;;;;5011258;28;20042;-79
2022/09/06 06:59:34;;;;;;;0.63;0.55;;;16.30;78.50;;;;;;5009381;28;20057;-80
2022/09/06 07:01:59;;;;;;;0.95;0.80;;;16.40;78.50;;;;;;5010412;28;20064;-79
2022/09/06 07:04:24;;;;;;;0.80;0.63;;;16.40;77.40;;;;;;5007001;28;20156;-79
2022/09/06 07:06:52;;;;;;;2.10;0.90;;;16.60;79.70;;;;;;5007119;28;20531;-80
2022/09/06 07:09:19;;;;;;;2.20;0.95;;;16.70;75.70;;;;;;4998395;28;20026;-80
2022/09/06 07:11:45;;;;;;;1.27;0.75;;;16.80;76.30;;;;;;5004408;28;20068;-78
2022/09/06 07:14:10;;;;;;;0.57;0.57;;;16.90;78.00;;;;;;5002579;28;20022;-79
2022/09/06 07:16:36;;;;;;;0.70;0.68;;;17.10;75.60;;;;;;5008183;28;20990;-80
2022/09/06 07:19:02;;;;;;;1.30;0.90;;;17.00;77.20;;;;;;4999012;28;20040;-81
2022/09/06 07:21:27;;;;;;;0.65;0.52;;;17.00;77.70;;;;;;5008823;28;20107;-78
2022/09/06 07:23:53;;;;;;;0.80;0.60;;;17.10;78.00;;;;;;4998509;28;20164;-78
2022/09/06 07:26:21;;;;;;;0.80;0.60;;;17.10;75.60;;;;;;5007603;28;20030;-80
2022/09/06 07:28:47;;;;;;;1.25;0.80;;;17.00;77.00;;;;;;4992560;28;20030;-80
2022/09/06 07:31:12;;;;;;;1.02;0.60;;;17.00;75.90;;;;;;5004113;28;20129;-79
2022/09/06 07:33:38;;;;;;;3.03;0.85;;;17.00;77.80;;;;;;5009391;28;20116;-80
2022/09/06 07:36:05;;;;;;;3.33;0.70;;;17.00;76.40;;;;;;5008223;28;20112;-79
2022/09/06 07:38:32;;;;;;;1.63;1.05;;;17.10;77.70;;;;;;5005578;28;20113;-79
2022/09/06 07:40:59;;;;;;;1.55;0.90;;;17.20;76.40;;;;;;4998781;28;20497;-79
2022/09/06 07:43:26;;;;;;;0.98;0.75;;;17.20;75.90;;;;;;5008820;28;20077;-80
2022/09/06 07:46:21;;;;;;;1.30;1.10;;;17.30;76.60;;;;;;4997540;28;20770;-79
2022/09/06 07:48:48;;;;;;;1.73;1.10;;;17.40;76.70;;;;;;4983808;28;20397;-80
2022/09/06 07:51:19;;;;;;;0.70;0.68;;;17.70;75.40;;;;;;5005811;28;20026;-80
2022/09/06 07:53:52;;;;;;;1.33;0.70;;;17.80;75.50;;;;;;5000237;28;20210;-80
2022/09/06 07:56:20;;;;;;;1.42;0.95;;;18.00;75.60;;;;;;5001530;28;20044;-80
2022/09/06 07:58:46;;;;;;;0.90;0.70;;;18.20;74.80;;;;;;5000467;28;20103;-80
2022/09/06 08:01:19;;;;;;;0.77;0.77;;;18.40;74.00;;;;;;4991752;28;20473;-77
2022/09/06 08:03:46;;;;;;;0.68;0.68;;;18.50;73.70;;;;;;4990396;28;20030;-77
2022/09/06 08:06:12;;;;;;;2.10;1.20;;;18.60;74.40;;;;;;5003162;28;20030;-78
2022/09/06 08:08:38;;;;;;;1.23;0.88;;;18.70;72.80;;;;;;5007456;28;20649;-77
2022/09/06 08:11:06;;;;;;;2.30;1.00;;;18.80;73.90;;;;;;5009500;28;20026;-80
2022/09/06 08:13:32;;;;;;;1.20;1.00;;;18.60;73.20;;;;;;5007739;28;20084;-78
2022/09/06 08:16:03;;;;;;;3.60;1.10;;;18.80;73.10;;;;;;4998402;28;20440;-78
2022/09/06 08:18:29;;;;;;;2.65;1.45;;;18.90;72.90;;;;;;4998776;28;20026;-78
2022/09/06 08:20:54;;;;;;;2.08;1.30;;;19.10;72.40;;;;;;4997282;28;20101;-78
2022/09/06 08:23:23;;;;;;;1.25;0.90;;;19.20;72.20;;;;;;4996442;28;20033;-78
2022/09/06 08:25:58;;;;;;;1.42;1.20;;;19.00;72.50;;;;;;5000274;28;20026;-80
2022/09/06 08:28:24;;;;;;;1.73;1.42;;;19.10;72.50;;;;;;4992298;28;20025;-77
2022/09/06 08:30:50;;;;;;;1.27;0.93;;;19.30;73.00;;;;;;5005357;28;20141;-80
2022/09/06 08:33:19;;;;;;;2.00;1.20;;;19.30;71.80;;;;;;5002732;28;20121;-77
2022/09/06 08:35:54;;;;;;;1.17;1.08;;;19.10;72.70;;;;;;5005332;28;20369;-81
2022/09/06 08:38:20;;;;;;;1.35;0.82;;;19.20;72.80;;;;;;5000624;28;20022;-82
2022/09/06 08:40:45;;;;;;;1.20;0.95;;;19.10;74.00;;;;;;5004963;28;20040;-78
2022/09/06 08:43:18;;;;;;;1.63;1.10;;;19.20;72.80;;;;;;5004149;28;20660;-78
2022/09/06 08:45:49;;;;;;;1.48;1.05;;;19.20;73.20;;;;;;5007097;28;20045;-82
2022/09/06 08:48:14;;;;;;;1.10;0.98;;;19.40;72.60;;;;;;5005091;28;20025;-79
2022/09/06 08:50:48;;;;;;;2.50;0.95;;;19.60;72.70;;;;;;5007345;28;20057;-78
2022/09/06 08:53:17;;;;;;;1.10;0.85;;;19.70;72.70;;;;;;5001659;28;20035;-80
2022/09/06 08:55:54;;;;;;;1.35;1.25;;;19.70;72.10;;;;;;5007033;28;20057;-77
2022/09/06 08:58:31;;;;;;;2.00;1.27;;;19.70;73.40;;;;;;5002899;28;20065;-77
2022/09/06 09:01:03;;;;;;;1.17;1.08;;;20.10;73.40;;;;;;4999752;28;20087;-77
2022/09/06 09:03:37;;;;;;;1.65;1.05;;;20.30;71.60;;;;;;5006607;28;20026;-77
2022/09/06 09:06:08;;;;;;;2.17;1.20;;;20.10;70.30;;;;;;5002733;28;20030;-77
2022/09/06 09:08:43;;;;;;;1.17;0.93;;;20.10;70.50;;;;;;5004682;28;20113;-78
2022/09/06 09:11:13;;;;;;;1.50;1.30;;;20.40;70.70;;;;;;5000410;28;20026;-80
2022/09/06 09:13:47;;;;;;;1.02;0.93;;;20.70;68.20;;;;;;5004132;28;20041;-79
2022/09/06 09:16:16;;;;;;;1.75;1.15;;;20.70;67.60;;;;;;4997566;28;20061;-80
2022/09/06 09:18:49;;;;;;;1.60;1.08;;;20.60;68.20;;;;;;5005682;28;20044;-78
2022/09/06 09:21:19;;;;;;;1.20;1.10;;;20.60;67.50;;;;;;5007883;28;20026;-81
2022/09/06 09:23:52;;;;;;;3.47;1.40;;;20.60;68.30;;;;;;5007712;28;20036;-79
2022/09/06 09:26:20;;;;;;;2.30;1.48;;;20.60;69.00;;;;;;5007521;28;20022;-82
2022/09/06 09:29:05;;;;;;;1.25;1.13;;;20.60;67.60;;;;;;4994809;28;20061;-82
2022/09/06 09:32:00;;;;;;;2.28;1.42;;;20.60;67.50;;;;;;4988447;28;20042;-78
2022/09/06 09:34:38;;;;;;;1.58;1.23;;;20.80;67.50;;;;;;4971560;28;20125;-80
2022/09/06 09:37:22;;;;;;;1.25;1.00;;;20.80;67.60;;;;;;4992421;28;20030;-78
2022/09/06 09:39:51;;;;;;;1.85;1.10;;;20.90;67.10;;;;;;4999885;28;20180;-81
2022/09/06 09:42:35;;;;;;;2.25;1.00;;;21.00;66.60;;;;;;4988579;28;20034;-77
2022/09/06 09:45:03;;;;;;;1.77;1.35;;;21.00;67.00;;;;;;4988508;28;20072;-79
2022/09/06 09:47:31;;;;;;;2.20;1.10;;;21.00;65.20;;;;;;4996459;28;20028;-79
2022/09/06 09:49:58;;;;;;;2.20;1.48;;;21.10;66.40;;;;;;4998554;28;20515;-79
2022/09/06 09:52:25;;;;;;;1.23;1.10;;;21.20;65.90;;;;;;5006675;28;20052;-79
2022/09/06 09:54:54;;;;;;;1.92;1.30;;;21.40;66.20;;;;;;5005682;28;20128;-78
2022/09/06 09:57:21;;;;;;;2.05;1.40;;;21.60;65.40;;;;;;5007000;28;20100;-77
2022/09/06 09:59:56;;;;;;;1.20;0.90;;;21.30;64.60;;;;;;5007671;28;20022;-79
2022/09/06 10:02:38;;;;;;;3.15;1.30;;;21.60;64.40;;;;;;5007569;28;20081;-78
2022/09/06 10:05:18;;;;;;;1.88;1.50;;;21.50;63.90;;;;;;5006837;28;20030;-80
2022/09/06 10:07:57;;;;;;;1.13;0.93;;;21.60;64.00;;;;;;4991927;28;20041;-80
2022/09/06 10:10:34;;;;;;;2.90;1.33;;;21.60;64.20;;;;;;5005362;28;20472;-79
2022/09/06 10:13:15;;;;;;;1.30;1.10;;;21.60;64.40;;;;;;5006007;28;20061;-78
2022/09/06 10:15:41;;;;;;;2.35;1.10;;;21.70;63.80;;;;;;4994198;28;20033;-78
2022/09/06 10:18:16;;;;;;;1.38;0.82;;;21.80;63.80;;;;;;5006148;28;20037;-80
2022/09/06 10:20:52;;;;;;;1.08;0.90;;;21.80;63.50;;;;;;4991924;28;20061;-78
2022/09/06 10:23:29;;;;;;;1.23;1.00;;;22.20;62.10;;;;;;4991496;28;20113;-81
2022/09/06 10:26:07;;;;;;;1.58;0.90;;;22.20;61.90;;;;;;4992070;28;20027;-78
2022/09/06 10:28:35;;;;;;;1.30;1.20;;;22.30;61.80;;;;;;5008731;28;20200;-79
2022/09/06 10:31:18;;;;;;;1.10;1.00;;;22.90;60.90;;;;;;5010699;28;20372;-79
2022/09/06 10:34:11;;;;;;;2.08;1.00;;;23.60;58.80;;;;;;4995266;28;20038;-78
2022/09/06 10:36:46;;;;;;;4.05;1.45;;;23.50;58.00;;;;;;5001586;28;20081;-79
2022/09/06 10:39:40;;;;;;;1.58;1.48;;;23.30;58.70;;;;;;5009075;28;20381;-79
2022/09/06 10:42:21;;;;;;;1.23;1.00;;;23.00;58.50;;;;;;5006973;28;20013;-79
2022/09/06 10:45:07;;;;;;;4.68;0.90;;;22.70;59.20;;;;;;5010924;28;20040;-80
2022/09/06 10:48:01;;;;;;;1.88;0.95;;;22.00;61.10;;;;;;5010472;28;20030;-80
2022/09/06 10:50:35;;;;;;;1.45;1.17;;;21.90;64.00;;;;;;4999572;28;20026;-81
2022/09/06 10:53:10;;;;;;;1.40;1.00;;;22.10;61.60;;;;;;5004885;28;20031;-79
2022/09/06 10:55:39;;;;;;;1.92;1.30;;;22.10;62.90;;;;;;4991425;28;20030;-80
2022/09/06 10:58:05;;;;;;;1.90;1.20;;;22.00;61.80;;;;;;4991510;28;20101;-77
2022/09/06 11:00:40;;;;;;;1.08;0.98;;;21.70;62.30;;;;;;5010450;28;20025;-80
2022/09/06 11:03:24;;;;;;;2.05;1.13;;;21.60;61.80;;;;;;5009573;28;20021;-79
2022/09/06 11:06:11;;;;;;;1.08;0.98;;;21.80;61.80;;;;;;5003814;28;20034;-79
2022/09/06 11:08:49;;;;;;;1.15;0.90;;;22.00;61.70;;;;;;5010068;28;20524;-80
2022/09/06 11:11:22;;;;;;;5.20;1.20;;;22.00;61.40;;;;;;5010991;28;20461;-81
2022/09/06 11:13:48;;;;;;;0.88;0.82;;;22.30;61.10;;;;;;5009994;28;20480;-80
2022/09/06 11:16:21;;;;;;;1.67;1.05;;;22.40;61.00;;;;;;5009893;28;20026;-79
2022/09/06 11:19:04;;;;;;;1.73;1.23;;;22.40;60.90;;;;;;5010545;28;20030;-79
2022/09/06 11:22:02;;;;;;;1.80;0.82;;;22.30;60.70;;;;;;5010665;28;20022;-79
2022/09/06 11:25:09;;;;;;;1.15;1.00;;;22.20;60.60;;;;;;5007729;28;20033;-80
2022/09/06 11:27:38;;;;;;;1.17;0.80;;;22.20;61.70;;;;;;4999175;28;20027;-78
2022/09/06 11:30:05;;;;;;;3.65;0.80;;;22.10;60.50;;;;;;4990186;28;20129;-82
2022/09/06 11:32:48;;;;;;;1.98;1.13;;;21.90;61.10;;;;;;4990787;28;20413;-80
2022/09/06 11:35:27;;;;;;;1.48;1.00;;;21.80;62.50;;;;;;4998851;28;20092;-78
2022/09/06 11:38:03;;;;;;;2.90;1.42;;;21.80;62.50;;;;;;5008799;28;20611;-80
2022/09/06 11:40:37;;;;;;;3.78;1.35;;;21.90;62.30;;;;;;5007745;28;20120;-79
2022/09/06 11:43:03;;;;;;;1.40;1.00;;;22.10;62.40;;;;;;5010508;28;20030;-79
2022/09/06 11:45:41;;;;;;;2.83;1.88;;;22.00;62.90;;;;;;5006582;28;20036;-79
2022/09/06 11:48:43;;;;;;;5.82;1.55;;;22.00;61.00;;;;;;5000323;28;20061;-81
2022/09/06 11:51:12;;;;;;;0.75;0.73;;;22.20;61.90;;;;;;5007216;28;20034;-80
2022/09/06 11:53:49;;;;;;;1.13;1.02;;;22.20;62.60;;;;;;5007771;28;20030;-78
2022/09/06 11:56:46;;;;;;;2.05;1.40;;;22.20;61.50;;;;;;4992562;28;20054;-81
2022/09/06 11:59:15;;;;;;;1.65;1.30;;;22.00;60.70;;;;;;4990391;28;20451;-81
2022/09/06 12:02:00;;;;;;;2.15;1.48;;;22.20;63.40;;;;;;5008705;28;20030;-82
2022/09/06 12:04:57;;;;;;;1.75;1.30;;;22.30;61.90;;;;;;5009841;28;20531;-82
2022/09/06 12:07:24;;;;;;;1.42;1.25;;;22.30;62.20;;;;;;5009528;28;20041;-82
2022/09/06 12:09:50;;;;;;;3.63;1.42;;;22.40;61.10;;;;;;5009712;28;20040;-81
2022/09/06 12:12:39;;;;;;;3.35;1.85;;;22.20;60.30;;;;;;5006301;28;20033;-79
2022/09/06 12:15:30;;;;;;;1.73;1.20;;;22.20;61.00;;;;;;4995297;28;20029;-79
2022/09/06 12:17:58;;;;;;;4.35;1.55;;;22.10;62.10;;;;;;5000132;28;20473;-82
2022/09/06 12:20:57;;;;;;;2.03;1.38;;;22.20;62.10;;;;;;5005446;28;20030;-84
2022/09/06 12:23:35;;;;;;;1.42;1.30;;;22.20;60.70;;;;;;4990098;28;20038;-80
2022/09/06 12:26:02;;;;;;;1.92;1.05;;;22.10;62.00;;;;;;4998781;28;20025;-79
2022/09/06 12:28:40;;;;;;;1.45;1.13;;;22.10;62.10;;;;;;5008346;28;20503;-80
2022/09/06 12:31:31;;;;;;;1.27;1.17;;;22.10;62.80;;;;;;5009156;28;20079;-81
2022/09/06 12:33:57;;;;;;;1.23;1.00;;;22.10;61.50;;;;;;5009018;28;20111;-78
2022/09/06 12:36:29;;;;;;;1.63;1.33;;;22.30;62.20;;;;;;5009279;28;20026;-80
2022/09/06 12:38:59;;;;;;;;;;;22.10;61.90;;;;;;5007999;28;20494;-77
2022/09/06 12:41:27;;;;;;;2.53;1.40;;;22.20;61.30;;;;;;5008889;28;20008;-79
2022/09/06 12:43:55;;;;;;;2.08;1.40;;;22.30;61.40;;;;;;5004827;28;20041;-82
2022/09/06 12:46:23;;;;;;;3.28;1.73;;;22.40;61.20;;;;;;5009087;28;20026;-80
2022/09/06 12:49:00;;;;;;;5.88;1.30;;;22.60;60.40;;;;;;4997946;28;20105;-79
2022/09/06 12:51:26;;;;;;;1.40;1.08;;;22.90;59.50;;;;;;5006608;28;20022;-80
2022/09/06 12:54:04;;;;;;;4.15;1.50;;;23.00;60.90;;;;;;5008230;28;20120;-78
2022/09/06 12:56:33;;;;;;;1.40;1.30;;;23.10;59.80;;;;;;4996532;28;20366;-82
2022/09/06 12:59:14;;;;;;;2.83;1.73;;;22.90;60.50;;;;;;5004556;28;20034;-79
2022/09/06 13:01:45;;;;;;;1.50;1.40;;;22.90;59.50;;;;;;5000432;28;20049;-78
2022/09/06 13:04:31;;;;;;;2.00;1.75;;;23.10;61.30;;;;;;5008207;28;20034;-80
2022/09/06 13:06:58;;;;;;;1.73;1.30;;;23.20;59.50;;;;;;5003551;28;20028;-78
2022/09/06 13:09:26;;;;;;;2.28;1.70;;;23.40;59.40;;;;;;5006752;28;20507;-78